createdAt,value
2022-11-22T03:55:59.850Z,11.32
2022-11-22T03:58:28.624Z,14.52
2022-11-22T04:00:57.255Z,13.45
2022-11-22T04:03:25.655Z,17.90
2022-11-22T04:05:53.196Z,13.05
2022-11-22T04:08:20.855Z,14.48
2022-11-22T04:10:52.268Z,14.93
2022-11-22T04:13:20.650Z,12.43
2022-11-22T04:15:48.138Z,13.93
2022-11-22T04:18:22.852Z,14.82
2022-11-22T04:21:09.278Z,13.85
2022-11-22T04:23:36.879Z,12.40
2022-11-22T04:26:04.461Z,13.82
2022-11-22T04:29:01.871Z,25.15
2022-11-22T04:31:38.600Z,12.02
2022-11-22T04:34:06.265Z,15.25
2022-11-22T04:36:33.773Z,10.88
2022-11-22T04:39:01.271Z,11.52
2022-11-22T04:41:28.862Z,10.00
2022-11-22T04:44:15.262Z,11.27
2022-11-22T04:46:43.772Z,11.30
2022-11-22T04:49:11.416Z,14.63
2022-11-22T04:51:57.587Z,15.77
2022-11-22T04:54:28.214Z,11.68
2022-11-22T04:56:55.935Z,12.18
2022-11-22T04:59:23.542Z,11.82
2022-11-22T05:01:52.763Z,11.77
2022-11-22T05:04:20.293Z,12.10
2022-11-22T05:06:48.812Z,11.23
2022-11-22T05:09:16.770Z,12.07
2022-11-22T05:11:44.460Z,8.93
2022-11-22T05:14:16.546Z,11.57
2022-11-22T05:16:45.282Z,11.57
2022-11-22T05:19:12.984Z,11.10
2022-11-22T05:21:41.324Z,13.00
2022-11-22T05:24:09.217Z,10.65
2022-11-22T05:26:38.723Z,12.02
2022-11-22T05:29:08.840Z,12.02
2022-11-22T05:31:38.523Z,10.30
2022-11-22T05:36:35.201Z,11.77
2022-11-22T05:39:03.979Z,10.85
2022-11-22T05:41:32.349Z,10.95
2022-11-22T05:44:00.131Z,12.27
2022-11-22T05:46:30.365Z,12.35
2022-11-22T05:48:58.885Z,12.48
2022-11-22T05:51:34.114Z,14.95
2022-11-22T05:54:02.760Z,17.85
2022-11-22T05:56:31.042Z,12.85
2022-11-22T05:58:58.886Z,11.48
2022-11-22T06:01:26.982Z,10.23
2022-11-22T06:03:54.882Z,10.20
2022-11-22T06:06:23.022Z,10.52
2022-11-22T06:08:51.647Z,10.13
2022-11-22T06:11:25.680Z,10.52
2022-11-22T06:14:03.155Z,14.10
2022-11-22T06:16:30.932Z,12.13
2022-11-22T06:18:58.803Z,12.38
2022-11-22T06:21:26.578Z,12.48
2022-11-22T06:23:55.803Z,11.43
2022-11-22T06:26:26.922Z,11.52
2022-11-22T06:28:55.140Z,11.48
2022-11-22T06:31:25.109Z,12.23
2022-11-22T06:33:59.573Z,11.15
2022-11-22T06:36:29.739Z,15.50
2022-11-22T06:38:58.205Z,15.43
2022-11-22T06:41:33.007Z,11.25
2022-11-22T06:44:05.295Z,6.80
2022-11-22T06:46:33.155Z,7.55
2022-11-22T06:49:01.077Z,9.18
2022-11-22T06:51:30.749Z,7.68
2022-11-22T06:53:59.563Z,11.85
2022-11-22T06:56:30.087Z,6.22
2022-11-22T06:58:58.295Z,8.32
2022-11-22T07:01:28.591Z,7.95
2022-11-22T07:03:58.659Z,9.48
2022-11-22T07:06:29.743Z,11.80
2022-11-22T07:08:57.752Z,11.75
2022-11-22T07:11:28.171Z,21.42
2022-11-22T07:14:06.579Z,18.08
2022-11-22T07:16:37.432Z,12.25
2022-11-22T07:19:06.109Z,10.68
2022-11-22T07:21:35.105Z,12.00
2022-11-22T07:24:04.620Z,8.70
2022-11-22T07:28:59.850Z,8.52
2022-11-22T07:31:28.327Z,6.65
2022-11-22T07:33:58.024Z,10.32
2022-11-22T07:38:53.395Z,11.30
2022-11-22T07:41:22.268Z,15.23
2022-11-22T07:43:49.948Z,25.38
2022-11-22T07:46:29.420Z,17.40
2022-11-22T07:49:01.776Z,20.17
2022-11-22T07:51:29.914Z,18.35
2022-11-22T07:53:58.603Z,13.35
2022-11-22T07:56:26.167Z,12.30
2022-11-22T07:58:54.970Z,35.08
2022-11-22T08:01:23.778Z,38.78
2022-11-22T08:03:51.773Z,31.98
2022-11-22T08:06:19.560Z,28.35
2022-11-22T08:08:47.292Z,25.50
2022-11-22T08:11:15.179Z,45.08
2022-11-22T08:13:44.035Z,20.45
2022-11-22T08:16:16.634Z,24.52
2022-11-22T08:18:48.909Z,22.67
2022-11-22T08:21:18.616Z,17.80
2022-11-22T08:23:48.323Z,19.05
2022-11-22T08:26:18.153Z,22.27
2022-11-22T08:28:46.116Z,22.85
2022-11-22T08:31:19.842Z,23.08
2022-11-22T08:33:48.953Z,18.83
2022-11-22T08:36:16.482Z,20.42
2022-11-22T08:38:44.881Z,19.00
2022-11-22T08:41:13.150Z,15.40
2022-11-22T08:43:41.027Z,21.23
2022-11-22T08:46:08.678Z,27.52
2022-11-22T08:48:38.360Z,25.73
2022-11-22T08:51:09.251Z,30.58
2022-11-22T08:53:42.807Z,26.10
2022-11-22T08:56:14.004Z,28.77
2022-11-22T08:58:43.423Z,26.95
2022-11-22T09:02:21.024Z,25.95
2022-11-22T09:04:48.653Z,25.33
2022-11-22T09:10:05.847Z,21.77
2022-11-22T09:12:37.559Z,18.52
2022-11-22T09:15:05.588Z,20.27
2022-11-22T09:17:33.246Z,24.20
2022-11-22T09:20:00.870Z,19.20
2022-11-22T09:22:28.780Z,18.23
2022-11-22T09:24:57.052Z,15.32
2022-11-22T09:27:24.726Z,18.92
2022-11-22T09:29:52.343Z,15.77
2022-11-22T09:32:20.120Z,18.73
2022-11-22T09:34:47.890Z,19.00
2022-11-22T09:37:18.584Z,16.58
2022-11-22T09:39:49.355Z,16.65
2022-11-22T09:42:28.915Z,18.38
2022-11-22T09:45:21.143Z,23.95
2022-11-22T09:47:57.541Z,26.98
2022-11-22T09:50:51.810Z,24.40
2022-11-22T09:53:28.560Z,21.05
2022-11-22T09:56:03.418Z,25.20
2022-11-22T09:58:47.671Z,24.77
2022-11-22T10:01:21.715Z,23.98
2022-11-22T10:03:59.061Z,27.55
2022-11-22T10:06:35.319Z,25.05
2022-11-22T10:09:35.434Z,43.45
2022-11-22T10:12:15.584Z,31.23
2022-11-22T10:14:54.556Z,28.50
2022-11-22T10:17:49.487Z,25.42
2022-11-22T10:20:24.239Z,29.40
2022-11-22T10:22:53.052Z,27.52
2022-11-22T10:25:39.996Z,24.03
2022-11-22T10:28:18.431Z,23.20
2022-11-22T10:31:00.447Z,25.67
2022-11-22T10:33:44.012Z,21.10
2022-11-22T10:36:37.465Z,20.17
2022-11-22T10:39:11.326Z,18.27
2022-11-22T10:42:02.432Z,18.85
2022-11-22T10:44:31.171Z,21.30
2022-11-22T10:47:04.032Z,19.77
2022-11-22T10:50:10.331Z,16.40
2022-11-22T10:52:44.666Z,16.67
2022-11-22T10:55:22.335Z,16.75
2022-11-22T10:58:14.071Z,16.13
2022-11-22T11:00:47.049Z,44.03
2022-11-22T11:03:36.433Z,18.02
2022-11-22T11:10:09.790Z,15.40
2022-11-22T11:12:32.436Z,17.15
2022-11-22T11:15:05.488Z,14.65
2022-11-22T11:17:37.723Z,14.32
2022-11-22T11:20:17.283Z,15.00
2022-11-22T11:23:13.255Z,14.18
2022-11-22T11:25:35.218Z,13.68
2022-11-22T11:28:27.377Z,18.50
2022-11-22T11:30:58.991Z,14.43
2022-11-22T11:33:32.977Z,14.52
2022-11-22T11:36:07.096Z,11.60
2022-11-22T11:38:36.528Z,11.57
2022-11-22T11:41:43.404Z,12.63
2022-11-22T11:44:26.251Z,10.10
2022-11-22T11:46:55.492Z,9.88
2022-11-22T11:49:28.619Z,9.43
2022-11-22T11:51:59.612Z,8.82
2022-11-22T11:54:39.255Z,9.80
2022-11-22T11:57:11.755Z,11.57
2022-11-22T11:59:39.563Z,12.38
2022-11-22T12:02:39.716Z,13.32
2022-11-22T12:05:14.149Z,13.07
2022-11-22T12:07:47.924Z,11.00
2022-11-22T12:10:56.397Z,12.48
2022-11-22T12:13:30.386Z,10.02
2022-11-22T12:16:13.764Z,11.60
2022-11-22T12:18:42.660Z,9.05
2022-11-22T12:21:13.944Z,11.10
2022-11-22T12:24:45.255Z,8.32
2022-11-22T12:27:12.088Z,8.30
2022-11-22T12:29:42.005Z,11.68
2022-11-22T12:32:32.636Z,9.35
2022-11-22T12:35:10.534Z,8.68
2022-11-22T12:37:56.230Z,9.93
2022-11-22T12:40:27.814Z,9.95
2022-11-22T12:43:00.992Z,7.88
2022-11-22T12:45:48.241Z,8.50
2022-11-22T12:48:24.221Z,13.77
2022-11-22T12:51:40.109Z,10.20
2022-11-22T12:54:14.783Z,10.05
2022-11-22T12:56:53.114Z,10.65
2022-11-22T12:59:36.255Z,13.23
2022-11-22T13:02:40.890Z,16.60
2022-11-22T13:05:20.451Z,8.60
2022-11-22T13:08:09.819Z,9.13
2022-11-22T13:10:56.369Z,8.52
2022-11-22T13:13:30.362Z,8.02
2022-11-22T13:16:02.934Z,7.18
2022-11-22T13:18:34.828Z,6.88
2022-11-22T13:21:20.891Z,7.32
2022-11-22T13:24:19.755Z,12.40
2022-11-22T13:27:03.470Z,7.85
2022-11-22T13:29:34.863Z,7.47
2022-11-22T13:32:03.791Z,11.32
2022-11-22T13:34:36.531Z,11.70
2022-11-22T13:37:22.472Z,9.50
2022-11-22T13:39:50.631Z,13.55
2022-11-22T13:42:28.775Z,10.35
2022-11-22T13:44:56.554Z,9.95
2022-11-22T13:47:24.485Z,9.93
2022-11-22T13:49:54.167Z,6.72
2022-11-22T13:52:22.309Z,8.75
2022-11-22T13:54:50.032Z,9.93
2022-11-22T13:57:34.714Z,6.78
2022-11-22T14:00:11.513Z,5.85
2022-11-22T14:02:46.960Z,13.40
2022-11-22T14:05:17.546Z,12.65
2022-11-22T14:07:49.715Z,7.65
2022-11-22T14:11:02.679Z,6.40
2022-11-22T14:13:52.413Z,7.28
2022-11-22T14:16:40.023Z,7.30
2022-11-22T14:19:26.510Z,8.88
2022-11-22T14:22:13.263Z,8.30
2022-11-22T14:25:00.001Z,10.68
2022-11-22T14:28:02.757Z,11.05
2022-11-22T14:30:54.284Z,8.93
2022-11-22T14:33:24.297Z,10.98
2022-11-22T14:36:07.326Z,14.20
2022-11-22T14:38:43.156Z,12.30
2022-11-22T14:41:28.532Z,10.32
2022-11-22T14:44:01.827Z,19.25
2022-11-22T14:46:53.199Z,13.45
2022-11-22T14:49:26.743Z,13.98
2022-11-22T14:51:57.622Z,11.65
2022-11-22T14:54:30.862Z,12.95
2022-11-22T14:57:05.117Z,11.95
2022-11-22T15:00:00.932Z,12.80
2022-11-22T15:03:06.294Z,14.20
2022-11-22T15:09:17.857Z,11.55
2022-11-22T15:09:20.990Z,12.27
2022-11-22T15:11:53.021Z,13.68
2022-11-22T15:14:58.070Z,11.75
2022-11-22T15:58:09.274Z,26.25
2022-11-22T16:00:37.116Z,24.70
2022-11-22T16:03:06.920Z,25.80
2022-11-22T16:06:06.744Z,27.48
2022-11-22T16:08:29.412Z,27.75
2022-11-22T16:11:01.813Z,24.85
2022-11-22T16:13:36.037Z,27.17
2022-11-22T16:16:12.781Z,28.88
2022-11-22T16:18:50.836Z,24.10
2022-11-22T16:21:25.262Z,28.15
2022-11-22T16:24:16.643Z,28.13
2022-11-22T16:27:04.147Z,29.85
2022-11-22T16:29:34.243Z,32.72
2022-11-22T16:32:20.164Z,25.42
2022-11-22T16:34:51.664Z,23.77
2022-11-22T16:37:37.676Z,26.57
2022-11-22T16:40:07.345Z,25.08
2022-11-22T16:42:40.784Z,23.65
2022-11-22T16:45:19.152Z,20.38
2022-11-22T16:47:54.618Z,25.75
2022-11-22T16:50:35.802Z,19.95
2022-11-22T16:53:03.468Z,21.77
2022-11-22T16:55:31.473Z,23.13
2022-11-22T16:57:59.047Z,25.60
2022-11-22T17:00:27.266Z,24.40
2022-11-22T17:02:55.031Z,21.75
2022-11-22T17:05:22.494Z,28.95
2022-11-22T17:07:50.765Z,23.98
2022-11-22T17:10:19.239Z,26.58
2022-11-22T17:15:18.827Z,24.95
2022-11-22T17:17:46.454Z,42.35
2022-11-22T17:20:14.268Z,31.40
2022-11-22T17:22:43.179Z,25.63
2022-11-22T17:25:13.882Z,31.75
2022-11-22T17:27:43.591Z,31.13
2022-11-22T17:30:13.263Z,30.67
2022-11-22T17:32:41.248Z,37.15
2022-11-22T17:35:10.513Z,37.55
2022-11-22T17:37:38.237Z,33.63
2022-11-22T17:40:06.718Z,34.55
2022-11-22T17:42:40.782Z,36.03
2022-11-22T17:45:09.515Z,40.28
2022-11-22T17:47:37.808Z,40.05
2022-11-22T17:50:06.106Z,52.72
2022-11-22T17:52:33.897Z,50.78
2022-11-22T17:55:05.632Z,49.20
2022-11-22T17:57:36.282Z,50.15
2022-11-22T18:00:07.045Z,38.88
2022-11-22T18:02:35.529Z,36.90
2022-11-22T18:05:08.477Z,40.75
2022-11-22T18:07:40.561Z,37.78
2022-11-22T18:10:10.140Z,36.17
2022-11-22T18:12:42.296Z,32.45
2022-11-22T18:15:14.589Z,34.88
2022-11-22T18:17:44.311Z,37.33
2022-11-22T18:20:11.910Z,33.50
2022-11-22T18:22:39.742Z,32.80
2022-11-22T18:25:07.540Z,36.92
2022-11-22T18:30:10.668Z,31.58
2022-11-22T18:32:38.379Z,28.03
2022-11-22T18:35:06.462Z,25.95
2022-11-22T18:37:34.394Z,25.50
2022-11-22T18:40:06.012Z,30.98
2022-11-22T18:42:35.974Z,36.83
2022-11-22T18:45:03.711Z,30.67
2022-11-22T18:47:31.321Z,23.90
2022-11-22T18:49:59.382Z,22.77
2022-11-22T18:52:27.087Z,22.67
2022-11-22T18:54:56.986Z,20.63
2022-11-22T18:57:24.620Z,17.13
2022-11-22T18:59:52.647Z,19.25
2022-11-22T19:02:25.829Z,21.75
2022-11-22T19:04:54.403Z,20.75
2022-11-22T19:07:22.673Z,23.27
2022-11-22T19:09:53.421Z,21.73
2022-11-22T19:12:21.574Z,19.95
2022-11-22T19:14:51.358Z,24.33
2022-11-22T19:17:22.032Z,22.75
2022-11-22T19:19:57.017Z,23.65
2022-11-22T19:22:26.243Z,25.50
2022-11-22T19:24:54.399Z,19.58
2022-11-22T19:27:22.175Z,19.08
2022-11-22T19:29:49.902Z,23.15
2022-11-22T19:32:18.004Z,24.80
2022-11-22T19:34:45.505Z,21.10
2022-11-22T19:37:13.276Z,24.25
2022-11-22T19:39:40.806Z,21.48
2022-11-22T19:42:08.460Z,21.63
2022-11-22T19:44:38.679Z,28.10
2022-11-22T19:47:06.796Z,27.33
2022-11-22T19:49:34.360Z,22.10
2022-11-22T19:52:02.385Z,26.65
2022-11-22T19:54:30.015Z,26.20
2022-11-22T19:56:57.874Z,27.17
2022-11-22T19:59:25.402Z,22.80
2022-11-22T20:01:53.124Z,23.73
2022-11-22T20:04:20.703Z,22.75
2022-11-22T20:06:50.300Z,21.50
2022-11-22T20:09:18.286Z,24.35
2022-11-22T20:11:47.688Z,24.23
2022-11-22T20:14:15.932Z,27.02
2022-11-22T20:16:44.373Z,32.47
2022-11-22T20:19:12.539Z,31.35
2022-11-22T20:24:09.795Z,31.45
2022-11-22T20:26:40.420Z,27.50
2022-11-22T20:29:11.949Z,28.98
2022-11-22T20:31:41.004Z,35.92
2022-11-22T20:34:10.235Z,31.13
2022-11-22T20:36:40.796Z,24.85
2022-11-22T20:39:10.754Z,24.58
2022-11-22T20:41:40.539Z,23.52
2022-11-22T20:44:12.886Z,22.27
2022-11-22T20:46:41.497Z,21.05
2022-11-22T20:49:09.142Z,21.65
2022-11-22T20:51:40.040Z,23.88
2022-11-22T20:54:08.417Z,23.08
2022-11-22T20:56:37.687Z,19.10
2022-11-22T20:59:05.492Z,20.58
2022-11-22T21:01:34.285Z,22.88
2022-11-22T21:04:02.843Z,23.77
2022-11-22T21:06:32.934Z,26.27
2022-11-22T21:09:01.214Z,22.15
2022-11-22T21:11:31.128Z,27.30
2022-11-22T21:13:59.647Z,26.50
2022-11-22T21:16:29.398Z,30.77
2022-11-22T21:19:02.184Z,31.95
2022-11-22T21:21:31.347Z,32.95
2022-11-22T21:24:02.837Z,26.10
2022-11-22T21:26:31.006Z,37.97
2022-11-22T21:28:59.650Z,30.13
2022-11-22T21:31:28.195Z,29.90
2022-11-22T21:33:56.024Z,30.40
2022-11-22T21:36:23.653Z,30.77
2022-11-22T21:38:51.323Z,28.00
2022-11-22T21:41:39.187Z,28.27
2022-11-22T21:44:09.179Z,24.70
2022-11-22T21:46:37.078Z,29.98
2022-11-22T21:49:04.794Z,27.17
2022-11-22T21:51:32.505Z,26.50
2022-11-22T21:54:01.373Z,25.02
2022-11-22T21:56:29.474Z,26.35
2022-11-22T21:58:57.317Z,26.17
2022-11-22T22:01:25.418Z,23.92
2022-11-22T22:03:53.984Z,24.08
2022-11-22T22:06:21.683Z,29.50
2022-11-22T22:08:50.367Z,22.90
2022-11-22T22:11:17.942Z,23.13
2022-11-22T22:13:46.278Z,20.85
2022-11-22T22:16:23.400Z,18.98
2022-11-22T22:18:51.160Z,22.55
2022-11-22T22:21:19.912Z,22.00
2022-11-22T22:23:47.826Z,17.38
2022-11-22T22:26:17.154Z,19.63
2022-11-22T22:28:46.161Z,19.70
2022-11-22T22:31:21.818Z,17.27
2022-11-22T22:33:57.325Z,18.45
2022-11-22T22:36:27.307Z,21.63
2022-11-22T22:38:55.215Z,23.50
2022-11-22T22:41:23.374Z,23.60
2022-11-22T22:43:50.927Z,23.08
2022-11-22T22:46:24.874Z,20.13
2022-11-22T22:48:54.924Z,17.88
2022-11-22T22:51:30.634Z,19.40
2022-11-22T22:54:01.094Z,21.40
2022-11-22T22:56:30.660Z,25.70
2022-11-22T22:59:01.123Z,18.95
2022-11-22T23:01:31.134Z,17.17
2022-11-22T23:04:01.083Z,19.80
2022-11-22T23:06:31.188Z,18.65
2022-11-22T23:08:59.270Z,16.73
2022-11-22T23:11:47.943Z,17.92
2022-11-22T23:14:21.822Z,12.75
2022-11-22T23:16:54.553Z,14.05
2022-11-22T23:19:26.227Z,16.13
2022-11-22T23:21:54.836Z,17.15
2022-11-22T23:24:22.638Z,12.70
2022-11-22T23:26:51.521Z,10.60
2022-11-22T23:29:19.023Z,15.27
2022-11-22T23:31:46.834Z,13.70
2022-11-22T23:34:14.395Z,13.50
2022-11-22T23:36:42.598Z,11.35
2022-11-22T23:39:11.631Z,13.45
2022-11-22T23:44:07.564Z,13.07
2022-11-22T23:46:35.624Z,13.82
2022-11-22T23:49:04.969Z,22.83
2022-11-22T23:51:34.252Z,17.65
2022-11-22T23:54:04.246Z,19.80
2022-11-22T23:56:34.927Z,22.48
